Maastricht, Netherlands

6:37 PM CEST on September 03, 2015 (GMT +0200)
Bunde | | Change Station
CLOSE
Current Station
Personal Weather Station
Location: Bunde, LIMBURG
Elevation: 216 ft
Nearby Weather Stations

Elev 216 ft 50.89 °N, 5.74 °E | Updated 1 minute ago

Clear
Clear
58.6 °F
Feels Like 58.6 °F
N
0.0
Wind Variable Wind from South
Gusts 2.0 mph

Today
High -- | Low -- °F
--% Chance of Precip.
Yesterday
High -- | Low -- °F
Precip. -- in
6:52 AM 8:18 PM
Waning Gibbous, 69% visible
Pressure 29.95 in
Visibility 6.2 miles
Clouds
Dew Point 52 °F
Humidity 80%
Rainfall 0.02 in
Snow Depth Not available.
UV Not available.
Pollen Not available.
Air Quality Not available.
Flu Activity Not available.
METAR EHBK 031625Z AUTO 21007KT 9999 NSC 14/10 Q1014 TEMPO 5000 SHRA SCT030CB
Pressure 29.95 in
Visibility 6.2 miles
Clouds
Dew Point 52 °F
Humidity 80%
Rainfall 0.02 in
Snow Depth Not available.
UV Not available.
Pollen Not available.
Air Quality Not available.
Flu Activity Not available.
METAR EHBK 031625Z AUTO 21007KT 9999 NSC 14/10 Q1014 TEMPO 5000 SHRA SCT030CB

10-Day Weather Forecast

×

Almanac

Astronomy

Sep. 03, 2015 Rise Set
Actual Time
Civil Twilight
Nautical Twilight
Astronomical Twilight
Moon
Length of Visible Light
Length of Day
Tomorrow will be .
, % of the Moon is Illuminated

Today's Extremes

Country Highs Country Lows

Community

WunderPhotos

Upload Photos

1,851,988 photos uploaded!

WunderBlogs® & News

Nearby

Air Quality

  Air Quality AQ Index Pollutant
Not available.

Snow Depth

Station Depth Elevation

Earthquake Activity

City Distance Mag. Time & Date
Minimum magnitude displayed is 2.5.

Coastal Water Temperatures

Place Temperature

Stations

Nearby Weather Stations

Station Location Temp. Windchill Dew Point Humidity Wind Precip. Elev Updated Type